sensor_id;sensor_type;location;lat;lon;timestamp;pressure;altitude;pressure_sealevel;temperature;humidity
71666;BME280;59503;53.486;10.196;2023-01-28T00:00:33;103003.72;;;0.10;91.64
71666;BME280;59503;53.486;10.196;2023-01-28T00:02:58;102994.53;;;0.06;93.62
71666;BME280;59503;53.486;10.196;2023-01-28T00:05:24;103001.84;;;0.11;95.36
71666;BME280;59503;53.486;10.196;2023-01-28T00:07:50;103000.72;;;0.07;97.17
71666;BME280;59503;53.486;10.196;2023-01-28T00:10:15;103003.03;;;0.03;96.87
71666;BME280;59503;53.486;10.196;2023-01-28T00:12:41;103004.66;;;0.04;97.09
71666;BME280;59503;53.486;10.196;2023-01-28T00:15:07;102999.78;;;0.01;97.16
71666;BME280;59503;53.486;10.196;2023-01-28T00:17:32;103001.41;;;0.02;96.79
71666;BME280;59503;53.486;10.196;2023-01-28T00:19:58;103013.97;;;0.02;97.24
71666;BME280;59503;53.486;10.196;2023-01-28T00:22:23;103012.56;;;-0.01;98.98
71666;BME280;59503;53.486;10.196;2023-01-28T00:24:49;103024.91;;;0.00;98.18
71666;BME280;59503;53.486;10.196;2023-01-28T00:27:14;103013.63;;;-0.02;96.54
71666;BME280;59503;53.486;10.196;2023-01-28T00:29:40;103013.72;;;0.03;95.87
71666;BME280;59503;53.486;10.196;2023-01-28T00:32:05;103017.00;;;0.05;93.92
71666;BME280;59503;53.486;10.196;2023-01-28T00:34:31;103015.69;;;0.08;91.17
71666;BME280;59503;53.486;10.196;2023-01-28T00:36:57;103012.84;;;0.26;87.77
71666;BME280;59503;53.486;10.196;2023-01-28T00:39:23;103015.63;;;0.31;88.49
71666;BME280;59503;53.486;10.196;2023-01-28T00:41:52;103019.69;;;0.33;88.81
71666;BME280;59503;53.486;10.196;2023-01-28T00:44:18;103009.78;;;0.34;90.41
71666;BME280;59503;53.486;10.196;2023-01-28T00:46:44;103006.56;;;0.32;88.79
71666;BME280;59503;53.486;10.196;2023-01-28T00:49:10;103002.34;;;0.36;88.32
71666;BME280;59503;53.486;10.196;2023-01-28T00:51:36;103010.59;;;0.34;87.66
71666;BME280;59503;53.486;10.196;2023-01-28T00:54:01;103013.03;;;0.36;84.57
71666;BME280;59503;53.486;10.196;2023-01-28T00:56:27;103013.03;;;0.36;87.20
71666;BME280;59503;53.486;10.196;2023-01-28T00:58:53;103000.72;;;0.35;85.22
71666;BME280;59503;53.486;10.196;2023-01-28T01:01:24;103002.34;;;0.36;86.02
71666;BME280;59503;53.486;10.196;2023-01-28T01:03:50;103004.44;;;0.34;87.88
71666;BME280;59503;53.486;10.196;2023-01-28T01:06:23;103007.13;;;0.34;88.17
71666;BME280;59503;53.486;10.196;2023-01-28T01:08:49;103007.84;;;0.29;87.52
71666;BME280;59503;53.486;10.196;2023-01-28T01:11:16;103003.06;;;0.31;88.28
71666;BME280;59503;53.486;10.196;2023-01-28T01:13:41;103004.13;;;0.30;88.55
71666;BME280;59503;53.486;10.196;2023-01-28T01:16:12;103001.91;;;0.27;89.35
71666;BME280;59503;53.486;10.196;2023-01-28T01:18:39;102995.66;;;0.22;90.37
71666;BME280;59503;53.486;10.196;2023-01-28T01:21:09;102999.97;;;0.23;91.49
71666;BME280;59503;53.486;10.196;2023-01-28T01:23:35;102992.16;;;0.21;93.00
71666;BME280;59503;53.486;10.196;2023-01-28T01:26:00;103003.34;;;0.18;92.68
71666;BME280;59503;53.486;10.196;2023-01-28T01:28:26;102986.38;;;0.13;93.02
71666;BME280;59503;53.486;10.196;2023-01-28T01:30:58;103010.78;;;0.16;92.82
71666;BME280;59503;53.486;10.196;2023-01-28T01:33:24;102992.22;;;0.10;89.79
71666;BME280;59503;53.486;10.196;2023-01-28T01:35:53;103004.88;;;0.14;90.01
71666;BME280;59503;53.486;10.196;2023-01-28T01:38:19;102991.38;;;0.09;91.99
71666;BME280;59503;53.486;10.196;2023-01-28T01:40:44;102996.25;;;0.12;92.32
71666;BME280;59503;53.486;10.196;2023-01-28T01:43:21;103003.00;;;0.15;92.71
71666;BME280;59503;53.486;10.196;2023-01-28T01:45:56;102997.91;;;0.13;94.27
71666;BME280;59503;53.486;10.196;2023-01-28T01:48:31;103003.25;;;0.13;94.60
71666;BME280;59503;53.486;10.196;2023-01-28T01:51:01;103003.72;;;0.10;94.72
71666;BME280;59503;53.486;10.196;2023-01-28T01:53:29;103004.41;;;0.06;93.33
71666;BME280;59503;53.486;10.196;2023-01-28T01:55:59;103007.44;;;0.09;94.92
71666;BME280;59503;53.486;10.196;2023-01-28T01:58:29;103005.81;;;0.08;95.42
71666;BME280;59503;53.486;10.196;2023-01-28T02:00:56;102995.03;;;0.03;95.65
71666;BME280;59503;53.486;10.196;2023-01-28T02:03:29;102986.66;;;-0.01;96.44
71666;BME280;59503;53.486;10.196;2023-01-28T02:05:56;102998.63;;;-0.03;97.37
71666;BME280;59503;53.486;10.196;2023-01-28T02:08:21;103007.69;;;-0.04;97.57
71666;BME280;59503;53.486;10.196;2023-01-28T02:11:16;103001.66;;;-0.11;95.28
71666;BME280;59503;53.486;10.196;2023-01-28T02:13:48;102990.97;;;-0.11;96.79
71666;BME280;59503;53.486;10.196;2023-01-28T02:16:15;102995.97;;;-0.15;99.54
71666;BME280;59503;53.486;10.196;2023-01-28T02:18:41;103001.66;;;-0.11;99.05
71666;BME280;59503;53.486;10.196;2023-01-28T02:30:14;102996.59;;;-0.24;98.73
71666;BME280;59503;53.486;10.196;2023-01-28T02:32:52;103003.78;;;-0.25;96.05
71666;BME280;59503;53.486;10.196;2023-01-28T02:35:23;102994.16;;;-0.26;95.20
71666;BME280;59503;53.486;10.196;2023-01-28T02:38:11;102989.81;;;-0.27;95.43
71666;BME280;59503;53.486;10.196;2023-01-28T02:40:42;102987.63;;;-0.30;96.29
71666;BME280;59503;53.486;10.196;2023-01-28T02:43:34;102984.38;;;-0.32;93.10
71666;BME280;59503;53.486;10.196;2023-01-28T02:46:10;102981.81;;;-0.38;95.02
71666;BME280;59503;53.486;10.196;2023-01-28T02:48:55;102987.78;;;-0.48;96.41
71666;BME280;59503;53.486;10.196;2023-01-28T02:51:40;102986.13;;;-0.49;96.39
71666;BME280;59503;53.486;10.196;2023-01-28T02:54:15;102986.00;;;-0.54;96.46
71666;BME280;59503;53.486;10.196;2023-01-28T02:57:06;102995.31;;;-0.56;97.69
71666;BME280;59503;53.486;10.196;2023-01-28T02:59:54;102998.47;;;-0.59;97.31
71666;BME280;59503;53.486;10.196;2023-01-28T03:02:29;102990.22;;;-0.58;98.56
71666;BME280;59503;53.486;10.196;2023-01-28T03:05:24;102986.13;;;-0.60;97.45
71666;BME280;59503;53.486;10.196;2023-01-28T03:07:52;102991.81;;;-0.57;97.92
71666;BME280;59503;53.486;10.196;2023-01-28T03:10:20;102996.38;;;-0.57;98.44
71666;BME280;59503;53.486;10.196;2023-01-28T03:12:55;102998.00;;;-0.56;98.52
71666;BME280;59503;53.486;10.196;2023-01-28T03:15:43;102989.75;;;-0.55;98.65
71666;BME280;59503;53.486;10.196;2023-01-28T03:18:49;102985.09;;;-0.59;99.54
71666;BME280;59503;53.486;10.196;2023-01-28T03:21:38;102991.81;;;-0.57;99.75
71666;BME280;59503;53.486;10.196;2023-01-28T03:24:27;102996.38;;;-0.57;99.06
71666;BME280;59503;53.486;10.196;2023-01-28T03:27:18;102988.13;;;-0.56;99.74
71666;BME280;59503;53.486;10.196;2023-01-28T03:30:17;102981.97;;;-0.56;99.59
71666;BME280;59503;53.486;10.196;2023-01-28T03:33:03;102985.00;;;-0.53;100.00
71666;BME280;59503;53.486;10.196;2023-01-28T03:35:48;102989.03;;;-0.50;100.00
71666;BME280;59503;53.486;10.196;2023-01-28T03:38:32;102986.25;;;-0.55;100.00
71666;BME280;59503;53.486;10.196;2023-01-28T03:41:07;102982.56;;;-0.54;100.00
71666;BME280;59503;53.486;10.196;2023-01-28T03:43:33;102978.13;;;-0.60;100.00
71666;BME280;59503;53.486;10.196;2023-01-28T03:45:59;102980.34;;;-0.57;100.00
71666;BME280;59503;53.486;10.196;2023-01-28T03:48:26;102979.75;;;-0.59;100.00
71666;BME280;59503;53.486;10.196;2023-01-28T03:50:54;102979.41;;;-0.63;100.00
71666;BME280;59503;53.486;10.196;2023-01-28T03:53:20;102981.25;;;-0.75;100.00
71666;BME280;59503;53.486;10.196;2023-01-28T03:55:48;102986.38;;;-0.73;100.00
71666;BME280;59503;53.486;10.196;2023-01-28T03:58:15;102987.06;;;-0.78;100.00
71666;BME280;59503;53.486;10.196;2023-01-28T04:00:41;102998.00;;;-0.79;100.00
71666;BME280;59503;53.486;10.196;2023-01-28T04:03:17;102999.00;;;-0.80;100.00
71666;BME280;59503;53.486;10.196;2023-01-28T04:06:00;103003.44;;;-0.74;100.00
71666;BME280;59503;53.486;10.196;2023-01-28T04:08:26;103003.22;;;-0.73;100.00
71666;BME280;59503;53.486;10.196;2023-01-28T04:10:51;102994.97;;;-0.71;100.00
71666;BME280;59503;53.486;10.196;2023-01-28T04:13:17;103002.97;;;-0.71;100.00
71666;BME280;59503;53.486;10.196;2023-01-28T04:15:43;102999.84;;;-0.68;100.00
71666;BME280;59503;53.486;10.196;2023-01-28T04:18:09;103004.03;;;-0.72;100.00
71666;BME280;59503;53.486;10.196;2023-01-28T04:20:34;103001.56;;;-0.74;100.00
71666;BME280;59503;53.486;10.196;2023-01-28T04:23:00;102994.84;;;-0.76;100.00
71666;BME280;59503;53.486;10.196;2023-01-28T04:25:26;102998.22;;;-0.81;100.00
71666;BME280;59503;53.486;10.196;2023-01-28T04:27:51;102996.47;;;-0.87;100.00
71666;BME280;59503;53.486;10.196;2023-01-28T04:30:17;102988.31;;;-0.92;100.00
71666;BME280;59503;53.486;10.196;2023-01-28T04:32:45;102986.34;;;-0.96;100.00
71666;BME280;59503;53.486;10.196;2023-01-28T04:35:10;102974.97;;;-1.03;100.00
71666;BME280;59503;53.486;10.196;2023-01-28T04:37:36;102986.00;;;-1.00;100.00
71666;BME280;59503;53.486;10.196;2023-01-28T04:40:02;102979.59;;;-0.99;100.00
71666;BME280;59503;53.486;10.196;2023-01-28T04:42:27;102980.44;;;-0.98;100.00
71666;BME280;59503;53.486;10.196;2023-01-28T04:44:53;102986.34;;;-0.96;100.00
71666;BME280;59503;53.486;10.196;2023-01-28T04:47:18;102988.91;;;-1.01;100.00
71666;BME280;59503;53.486;10.196;2023-01-28T04:49:44;102984.25;;;-1.06;100.00
71666;BME280;59503;53.486;10.196;2023-01-28T04:52:10;102978.88;;;-1.17;100.00
71666;BME280;59503;53.486;10.196;2023-01-28T04:54:35;102986.88;;;-1.17;100.00
71666;BME280;59503;53.486;10.196;2023-01-28T04:57:00;102981.66;;;-1.24;100.00
71666;BME280;59503;53.486;10.196;2023-01-28T04:59:26;102986.50;;;-1.33;100.00
71666;BME280;59503;53.486;10.196;2023-01-28T05:01:51;102980.72;;;-1.30;100.00
71666;BME280;59503;53.486;10.196;2023-01-28T05:04:17;102984.09;;;-1.23;100.00
71666;BME280;59503;53.486;10.196;2023-01-28T05:06:42;102986.75;;;-1.23;100.00
71666;BME280;59503;53.486;10.196;2023-01-28T05:09:08;102991.66;;;-1.19;100.00
71666;BME280;59503;53.486;10.196;2023-01-28T05:11:33;102997.00;;;-1.19;100.00
71666;BME280;59503;53.486;10.196;2023-01-28T05:13:59;102985.13;;;-1.23;100.00
71666;BME280;59503;53.486;10.196;2023-01-28T05:16:24;102998.25;;;-1.22;100.00
71666;BME280;59503;53.486;10.196;2023-01-28T05:18:49;102985.13;;;-1.23;100.00
71666;BME280;59503;53.486;10.196;2023-01-28T05:21:16;102988.72;;;-1.30;100.00
71666;BME280;59503;53.486;10.196;2023-01-28T05:23:42;102986.94;;;-1.36;100.00
71666;BME280;59503;53.486;10.196;2023-01-28T05:26:08;102979.28;;;-1.44;100.00
71666;BME280;59503;53.486;10.196;2023-01-28T05:28:34;102983.44;;;-1.48;100.00
71666;BME280;59503;53.486;10.196;2023-01-28T05:31:06;102976.22;;;-1.59;100.00
71666;BME280;59503;53.486;10.196;2023-01-28T05:33:31;102975.47;;;-1.66;100.00
71666;BME280;59503;53.486;10.196;2023-01-28T05:35:57;102971.50;;;-1.75;100.00
71666;BME280;59503;53.486;10.196;2023-01-28T05:38:22;102969.59;;;-1.86;100.00
71666;BME280;59503;53.486;10.196;2023-01-28T05:40:48;102961.56;;;-1.97;100.00
71666;BME280;59503;53.486;10.196;2023-01-28T05:43:14;102958.38;;;-2.06;100.00
71666;BME280;59503;53.486;10.196;2023-01-28T05:45:39;102943.56;;;-2.20;100.00
71666;BME280;59503;53.486;10.196;2023-01-28T05:48:05;102955.00;;;-2.31;100.00
71666;BME280;59503;53.486;10.196;2023-01-28T05:50:31;102949.81;;;-2.44;100.00
71666;BME280;59503;53.486;10.196;2023-01-28T05:52:56;102952.63;;;-2.57;100.00
71666;BME280;59503;53.486;10.196;2023-01-28T05:55:22;102951.88;;;-2.64;100.00
71666;BME280;59503;53.486;10.196;2023-01-28T05:57:48;102944.38;;;-2.74;100.00
71666;BME280;59503;53.486;10.196;2023-01-28T06:00:14;102950.22;;;-2.65;100.00
71666;BME280;59503;53.486;10.196;2023-01-28T06:02:40;102961.16;;;-2.73;100.00
71666;BME280;59503;53.486;10.196;2023-01-28T06:05:06;102983.91;;;-2.77;100.00
71666;BME280;59503;53.486;10.196;2023-01-28T06:07:32;102960.47;;;-2.87;100.00
71666;BME280;59503;53.486;10.196;2023-01-28T06:09:57;102976.97;;;-2.78;100.00
71666;BME280;59503;53.486;10.196;2023-01-28T06:12:22;102966.94;;;-2.76;100.00
71666;BME280;59503;53.486;10.196;2023-01-28T06:14:48;102956.88;;;-2.74;100.00
71666;BME280;59503;53.486;10.196;2023-01-28T06:17:13;102954.44;;;-2.76;100.00
71666;BME280;59503;53.486;10.196;2023-01-28T06:19:39;102951.03;;;-2.83;100.00
71666;BME280;59503;53.486;10.196;2023-01-28T06:22:04;102970.44;;;-2.82;100.00
71666;BME280;59503;53.486;10.196;2023-01-28T06:24:30;102967.63;;;-2.87;100.00
71666;BME280;59503;53.486;10.196;2023-01-28T06:26:55;102963.19;;;-2.93;100.00
71666;BME280;59503;53.486;10.196;2023-01-28T06:29:20;102962.56;;;-2.95;100.00
71666;BME280;59503;53.486;10.196;2023-01-28T06:31:46;102962.97;;;-2.92;100.00
71666;BME280;59503;53.486;10.196;2023-01-28T06:34:11;102961.72;;;-2.89;100.00
71666;BME280;59503;53.486;10.196;2023-01-28T06:36:37;102955.97;;;-2.86;100.00
71666;BME280;59503;53.486;10.196;2023-01-28T06:39:03;102957.13;;;-2.82;100.00
71666;BME280;59503;53.486;10.196;2023-01-28T06:41:29;102949.59;;;-2.85;100.00
71666;BME280;59503;53.486;10.196;2023-01-28T06:43:54;102961.88;;;-2.84;100.00
71666;BME280;59503;53.486;10.196;2023-01-28T06:46:20;102958.19;;;-2.83;100.00
71666;BME280;59503;53.486;10.196;2023-01-28T06:48:45;102961.88;;;-2.84;100.00
71666;BME280;59503;53.486;10.196;2023-01-28T06:51:14;102952.31;;;-2.92;100.00
71666;BME280;59503;53.486;10.196;2023-01-28T06:53:40;102960.13;;;-2.97;100.00
71666;BME280;59503;53.486;10.196;2023-01-28T06:56:05;102956.88;;;-2.99;100.00
71666;BME280;59503;53.486;10.196;2023-01-28T06:58:31;102958.13;;;-3.01;100.00
71666;BME280;59503;53.486;10.196;2023-01-28T07:00:56;102962.84;;;-3.03;100.00
71666;BME280;59503;53.486;10.196;2023-01-28T07:03:23;102956.34;;;-3.07;100.00
71666;BME280;59503;53.486;10.196;2023-01-28T07:05:48;102971.16;;;-2.93;100.00
71666;BME280;59503;53.486;10.196;2023-01-28T07:08:14;102977.91;;;-2.91;100.00
71666;BME280;59503;53.486;10.196;2023-01-28T07:10:39;102994.13;;;-2.74;100.00
71666;BME280;59503;53.486;10.196;2023-01-28T07:13:05;102988.00;;;-2.75;100.00
71666;BME280;59503;53.486;10.196;2023-01-28T07:15:30;102991.31;;;-2.79;100.00
71666;BME280;59503;53.486;10.196;2023-01-28T07:17:55;102997.59;;;-2.74;100.00
71666;BME280;59503;53.486;10.196;2023-01-28T07:20:21;103000.16;;;-2.85;100.00
71666;BME280;59503;53.486;10.196;2023-01-28T07:22:46;103016.13;;;-2.85;100.00
71666;BME280;59503;53.486;10.196;2023-01-28T07:25:13;103013.22;;;-2.84;100.00
71666;BME280;59503;53.486;10.196;2023-01-28T07:27:44;103021.94;;;-2.95;100.00
71666;BME280;59503;53.486;10.196;2023-01-28T07:30:10;103025.81;;;-2.97;100.00
71666;BME280;59503;53.486;10.196;2023-01-28T07:32:35;103028.56;;;-2.79;100.00
71666;BME280;59503;53.486;10.196;2023-01-28T07:35:01;103031.63;;;-2.76;100.00
71666;BME280;59503;53.486;10.196;2023-01-28T07:37:26;103039.72;;;-2.64;100.00
71666;BME280;59503;53.486;10.196;2023-01-28T07:39:52;103039.66;;;-2.58;100.00
71666;BME280;59503;53.486;10.196;2023-01-28T07:42:17;103041.59;;;-2.46;100.00
71666;BME280;59503;53.486;10.196;2023-01-28T07:44:42;103033.31;;;-2.38;100.00
71666;BME280;59503;53.486;10.196;2023-01-28T07:47:08;103027.78;;;-2.37;100.00
71666;BME280;59503;53.486;10.196;2023-01-28T07:49:34;103021.09;;;-2.46;100.00
71666;BME280;59503;53.486;10.196;2023-01-28T07:51:59;103031.31;;;-2.43;100.00
71666;BME280;59503;53.486;10.196;2023-01-28T07:54:25;103017.91;;;-2.55;100.00
71666;BME280;59503;53.486;10.196;2023-01-28T07:56:50;103021.66;;;-2.62;100.00
71666;BME280;59503;53.486;10.196;2023-01-28T07:59:16;103044.59;;;-2.61;100.00
71666;BME280;59503;53.486;10.196;2023-01-28T08:01:41;103038.06;;;-2.65;100.00
71666;BME280;59503;53.486;10.196;2023-01-28T08:04:07;103038.94;;;-2.71;100.00
71666;BME280;59503;53.486;10.196;2023-01-28T08:06:32;103052.03;;;-2.70;100.00
71666;BME280;59503;53.486;10.196;2023-01-28T08:09:05;103042.63;;;-2.72;100.00
71666;BME280;59503;53.486;10.196;2023-01-28T08:11:33;103057.13;;;-2.68;100.00
71666;BME280;59503;53.486;10.196;2023-01-28T08:14:00;103052.84;;;-2.69;100.00
71666;BME280;59503;53.486;10.196;2023-01-28T08:16:26;103062.63;;;-2.63;100.00
71666;BME280;59503;53.486;10.196;2023-01-28T08:18:52;103057.28;;;-2.63;100.00
71666;BME280;59503;53.486;10.196;2023-01-28T08:21:18;103052.13;;;-2.58;100.00
71666;BME280;59503;53.486;10.196;2023-01-28T08:23:43;103054.19;;;-2.60;100.00
71666;BME280;59503;53.486;10.196;2023-01-28T08:26:09;103065.28;;;-2.63;100.00
71666;BME280;59503;53.486;10.196;2023-01-28T08:28:34;103059.78;;;-2.68;100.00
71666;BME280;59503;53.486;10.196;2023-01-28T08:31:00;103063.72;;;-2.71;100.00
71666;BME280;59503;53.486;10.196;2023-01-28T08:33:25;103059.63;;;-2.73;100.00
71666;BME280;59503;53.486;10.196;2023-01-28T08:35:51;103063.50;;;-2.69;100.00
71666;BME280;59503;53.486;10.196;2023-01-28T08:38:16;103063.28;;;-2.68;100.00
71666;BME280;59503;53.486;10.196;2023-01-28T08:40:42;103047.53;;;-2.69;100.00
71666;BME280;59503;53.486;10.196;2023-01-28T08:43:07;103058.88;;;-2.56;100.00
71666;BME280;59503;53.486;10.196;2023-01-28T08:45:33;103071.09;;;-2.48;100.00
71666;BME280;59503;53.486;10.196;2023-01-28T08:48:03;103075.88;;;-2.32;100.00
71666;BME280;59503;53.486;10.196;2023-01-28T08:50:32;103067.53;;;-2.17;100.00
71666;BME280;59503;53.486;10.196;2023-01-28T08:53:02;103073.38;;;-1.73;100.00
71666;BME280;59503;53.486;10.196;2023-01-28T08:55:28;103058.88;;;-1.59;100.00
71666;BME280;59503;53.486;10.196;2023-01-28T08:57:54;103063.28;;;-1.35;100.00
71666;BME280;59503;53.486;10.196;2023-01-28T09:00:20;103068.47;;;-1.10;100.00
71666;BME280;59503;53.486;10.196;2023-01-28T09:02:46;103065.63;;;-0.85;100.00
71666;BME280;59503;53.486;10.196;2023-01-28T09:05:14;103066.84;;;-0.58;100.00
71666;BME280;59503;53.486;10.196;2023-01-28T09:07:40;103078.34;;;-0.46;100.00
71666;BME280;59503;53.486;10.196;2023-01-28T09:10:06;103081.84;;;-0.34;100.00
71666;BME280;59503;53.486;10.196;2023-01-28T09:12:32;103091.25;;;-0.32;100.00
71666;BME280;59503;53.486;10.196;2023-01-28T09:14:58;103100.22;;;-0.26;100.00
71666;BME280;59503;53.486;10.196;2023-01-28T09:17:23;103109.28;;;-0.27;100.00
71666;BME280;59503;53.486;10.196;2023-01-28T09:19:49;103113.91;;;-0.11;100.00
71666;BME280;59503;53.486;10.196;2023-01-28T09:22:15;103088.47;;;-0.25;100.00
71666;BME280;59503;53.486;10.196;2023-01-28T09:24:41;103107.41;;;-0.15;100.00
71666;BME280;59503;53.486;10.196;2023-01-28T09:27:06;103118.44;;;-0.12;100.00
71666;BME280;59503;53.486;10.196;2023-01-28T09:29:34;103117.66;;;-0.01;100.00
71666;BME280;59503;53.486;10.196;2023-01-28T09:32:00;103124.03;;;-0.02;99.27
71666;BME280;59503;53.486;10.196;2023-01-28T09:34:26;103125.06;;;-0.03;99.70
71666;BME280;59503;53.486;10.196;2023-01-28T09:36:51;103131.81;;;-0.12;99.92
71666;BME280;59503;53.486;10.196;2023-01-28T09:39:17;103129.97;;;-0.23;99.51
71666;BME280;59503;53.486;10.196;2023-01-28T09:41:52;103131.44;;;-0.27;100.00
71666;BME280;59503;53.486;10.196;2023-01-28T09:44:40;103146.94;;;-0.17;100.00
71666;BME280;59503;53.486;10.196;2023-01-28T09:50:17;103139.09;;;-0.30;100.00
71666;BME280;59503;53.486;10.196;2023-01-28T09:52:44;103136.34;;;-0.24;100.00
71666;BME280;59503;53.486;10.196;2023-01-28T09:57:54;103146.94;;;0.06;99.32
71666;BME280;59503;53.486;10.196;2023-01-28T10:01:11;103131.13;;;0.16;98.58
71666;BME280;59503;53.486;10.196;2023-01-28T10:16:46;103094.28;;;0.86;91.74
71666;BME280;59503;53.486;10.196;2023-01-28T10:19:32;103095.88;;;0.98;89.56
71666;BME280;59503;53.486;10.196;2023-01-28T10:22:04;103084.38;;;1.14;86.19
71666;BME280;59503;53.486;10.196;2023-01-28T10:26:57;103086.53;;;1.46;85.29
71666;BME280;59503;53.486;10.196;2023-01-28T10:29:26;103081.06;;;1.41;84.61
71666;BME280;59503;53.486;10.196;2023-01-28T10:31:54;103080.91;;;1.31;87.92
71666;BME280;59503;53.486;10.196;2023-01-28T10:34:22;103071.88;;;1.37;86.89
71666;BME280;59503;53.486;10.196;2023-01-28T10:36:48;103063.44;;;1.45;84.88
71666;BME280;59503;53.486;10.196;2023-01-28T10:39:16;103057.03;;;1.46;86.98
71666;BME280;59503;53.486;10.196;2023-01-28T10:41:42;103062.47;;;1.67;83.90
71666;BME280;59503;53.486;10.196;2023-01-28T10:44:37;103061.31;;;1.63;83.33
71666;BME280;59503;53.486;10.196;2023-01-28T10:47:16;103056.03;;;1.68;84.23
71666;BME280;59503;53.486;10.196;2023-01-28T10:49:47;103058.47;;;1.70;84.09
71666;BME280;59503;53.486;10.196;2023-01-28T10:52:14;103049.06;;;1.67;84.39
71666;BME280;59503;53.486;10.196;2023-01-28T10:54:40;103046.63;;;1.66;82.75
71666;BME280;59503;53.486;10.196;2023-01-28T10:57:11;103038.88;;;1.31;83.30
71666;BME280;59503;53.486;10.196;2023-01-28T10:59:38;103031.28;;;1.28;84.47
71666;BME280;59503;53.486;10.196;2023-01-28T11:02:25;103017.41;;;1.14;87.69
71666;BME280;59503;53.486;10.196;2023-01-28T11:07:29;102993.72;;;1.06;86.48
71666;BME280;59503;53.486;10.196;2023-01-28T11:09:55;102981.88;;;1.02;84.77
71666;BME280;59503;53.486;10.196;2023-01-28T11:12:23;103006.06;;;1.07;86.10
71666;BME280;59503;53.486;10.196;2023-01-28T11:14:54;103008.00;;;1.28;85.40
71666;BME280;59503;53.486;10.196;2023-01-28T11:17:23;102984.13;;;1.44;85.81
71666;BME280;59503;53.486;10.196;2023-01-28T11:19:52;102982.97;;;1.56;84.06
71666;BME280;59503;53.486;10.196;2023-01-28T11:22:41;102997.66;;;1.54;83.93
71666;BME280;59503;53.486;10.196;2023-01-28T11:25:17;102994.25;;;1.58;82.77
71666;BME280;59503;53.486;10.196;2023-01-28T11:27:48;102990.34;;;1.66;84.10
71666;BME280;59503;53.486;10.196;2023-01-28T11:30:25;102990.84;;;1.63;81.22
71666;BME280;59503;53.486;10.196;2023-01-28T11:32:55;102984.38;;;1.42;80.71
71666;BME280;59503;53.486;10.196;2023-01-28T11:35:26;102951.00;;;1.33;83.27
71666;BME280;59503;53.486;10.196;2023-01-28T11:37:54;102958.56;;;1.36;84.13
71666;BME280;59503;53.486;10.196;2023-01-28T11:40:20;102947.78;;;1.69;82.96
71666;BME280;59503;53.486;10.196;2023-01-28T11:42:47;102926.56;;;2.11;79.49
71666;BME280;59503;53.486;10.196;2023-01-28T11:45:15;102928.28;;;2.22;79.75
71666;BME280;59503;53.486;10.196;2023-01-28T11:47:49;102946.81;;;2.50;77.73
71666;BME280;59503;53.486;10.196;2023-01-28T11:50:28;102944.28;;;2.65;79.27
71666;BME280;59503;53.486;10.196;2023-01-28T11:53:29;102946.19;;;2.70;77.61
71666;BME280;59503;53.486;10.196;2023-01-28T11:56:20;102958.53;;;2.71;77.81
71666;BME280;59503;53.486;10.196;2023-01-28T12:07:10;102946.41;;;2.63;75.71
71666;BME280;59503;53.486;10.196;2023-01-28T12:09:59;102952.19;;;2.50;75.07
71666;BME280;59503;53.486;10.196;2023-01-28T12:13:17;102934.81;;;2.31;78.29
71666;BME280;59503;53.486;10.196;2023-01-28T12:15:57;102935.72;;;2.15;79.79
71666;BME280;59503;53.486;10.196;2023-01-28T12:24:36;102942.72;;;1.94;79.88
71666;BME280;59503;53.486;10.196;2023-01-28T12:33:35;102928.78;;;2.19;79.72
71666;BME280;59503;53.486;10.196;2023-01-28T12:38:50;102919.59;;;2.36;79.45
71666;BME280;59503;53.486;10.196;2023-01-28T12:41:22;102917.75;;;2.42;78.96
71666;BME280;59503;53.486;10.196;2023-01-28T12:43:59;102922.06;;;2.43;80.34
71666;BME280;59503;53.486;10.196;2023-01-28T12:49:45;102902.16;;;2.39;81.01
71666;BME280;59503;53.486;10.196;2023-01-28T12:52:38;102894.34;;;2.37;80.25
71666;BME280;59503;53.486;10.196;2023-01-28T12:55:15;102900.47;;;2.60;80.73
71666;BME280;59503;53.486;10.196;2023-01-28T12:57:43;102892.13;;;2.93;79.23
71666;BME280;59503;53.486;10.196;2023-01-28T13:00:25;102902.06;;;3.34;76.78
71666;BME280;59503;53.486;10.196;2023-01-28T13:05:54;102875.44;;;3.94;76.58
71666;BME280;59503;53.486;10.196;2023-01-28T13:08:26;102856.84;;;3.88;75.32
71666;BME280;59503;53.486;10.196;2023-01-28T13:10:54;102867.38;;;3.99;75.32
71666;BME280;59503;53.486;10.196;2023-01-28T13:17:11;102865.84;;;3.46;76.41
71666;BME280;59503;53.486;10.196;2023-01-28T13:19:41;102862.63;;;3.44;76.51
71666;BME280;59503;53.486;10.196;2023-01-28T13:22:45;102859.97;;;3.49;78.58
71666;BME280;59503;53.486;10.196;2023-01-28T13:25:25;102851.88;;;3.44;76.67
71666;BME280;59503;53.486;10.196;2023-01-28T13:28:02;102848.63;;;3.42;78.24
71666;BME280;59503;53.486;10.196;2023-01-28T13:30:46;102848.00;;;3.25;78.09
71666;BME280;59503;53.486;10.196;2023-01-28T13:33:29;102850.09;;;3.13;79.03
71666;BME280;59503;53.486;10.196;2023-01-28T13:35:55;102850.66;;;3.15;79.31
71666;BME280;59503;53.486;10.196;2023-01-28T13:38:21;102855.28;;;2.83;79.76
71666;BME280;59503;53.486;10.196;2023-01-28T13:40:58;102882.41;;;2.50;80.85
71666;BME280;59503;53.486;10.196;2023-01-28T13:43:33;102874.66;;;2.53;81.96
71666;BME280;59503;53.486;10.196;2023-01-28T13:46:06;102869.94;;;2.39;82.54
71666;BME280;59503;53.486;10.196;2023-01-28T13:48:48;102876.56;;;2.26;83.86
71666;BME280;59503;53.486;10.196;2023-01-28T13:52:31;102892.97;;;2.30;84.27
71666;BME280;59503;53.486;10.196;2023-01-28T13:54:34;102882.66;;;2.22;84.84
71666;BME280;59503;53.486;10.196;2023-01-28T13:57:46;102894.22;;;2.22;84.59
71666;BME280;59503;53.486;10.196;2023-01-28T14:05:58;102909.47;;;2.43;84.73